Terminal Aerodrome Forecast
Issued by NWS

Home | Current Version | Previous Version | Text Only | Print | Product List | Glossary On
Versions: 1 2 3 4 5 6 7 8 9 10 11 12 13 14 15 16
631
FTUS42 KFFC 172337 CCA
TAFRYY
TAF COR
KRYY 172337Z 1800/1824 00000KT 6SM BR VCSH BKN012
      TEMPO 1800/1803 2SM BR OVC006
     FM180300 00000KT 2SM -DZ BR OVC006
     FM181200 03003KT 1SM -DZ BR OVC004
     FM181600 28004KT 6SM BR OVC008
     FM181900 28006KT P6SM OVC015
     FM182300 28005KT P6SM FEW020 OVC100=

USA.gov is the U.S. government's official web portal to all federal, state and local government web resources and services.